sensor_id;sensor_type;location;lat;lon;timestamp;pressure;altitude;pressure_sealevel;temperature;humidity
7376;BME280;3728;42.266;24.944;2023-05-01T00:01:42;99477.59;;;13.21;100.00
7376;BME280;3728;42.266;24.944;2023-05-01T00:04:09;99484.97;;;13.56;100.00
7376;BME280;3728;42.266;24.944;2023-05-01T00:06:37;99481.88;;;13.54;100.00
7376;BME280;3728;42.266;24.944;2023-05-01T00:09:05;99488.13;;;13.70;98.97
7376;BME280;3728;42.266;24.944;2023-05-01T00:11:34;99485.50;;;13.91;97.09
7376;BME280;3728;42.266;24.944;2023-05-01T00:14:02;99489.72;;;13.84;97.71
7376;BME280;3728;42.266;24.944;2023-05-01T00:16:30;99495.31;;;14.03;97.40
7376;BME280;3728;42.266;24.944;2023-05-01T00:18:58;99493.19;;;13.76;98.81
7376;BME280;3728;42.266;24.944;2023-05-01T00:21:25;99494.03;;;13.67;100.00
7376;BME280;3728;42.266;24.944;2023-05-01T00:23:53;99499.66;;;13.57;100.00
7376;BME280;3728;42.266;24.944;2023-05-01T00:26:21;99501.97;;;13.59;100.00
7376;BME280;3728;42.266;24.944;2023-05-01T00:28:51;99500.38;;;13.66;100.00
7376;BME280;3728;42.266;24.944;2023-05-01T00:31:19;99501.91;;;13.67;100.00
7376;BME280;3728;42.266;24.944;2023-05-01T00:33:47;99490.28;;;13.68;100.00
7376;BME280;3728;42.266;24.944;2023-05-01T00:36:14;99495.75;;;13.84;100.00
7376;BME280;3728;42.266;24.944;2023-05-01T00:38:42;99496.22;;;13.86;99.23
7376;BME280;3728;42.266;24.944;2023-05-01T00:41:09;99508.03;;;13.80;98.95
7376;BME280;3728;42.266;24.944;2023-05-01T00:43:37;99504.56;;;13.67;99.35
7376;BME280;3728;42.266;24.944;2023-05-01T00:46:07;99500.81;;;13.68;98.52
7376;BME280;3728;42.266;24.944;2023-05-01T00:48:35;99496.03;;;13.70;97.55
7376;BME280;3728;42.266;24.944;2023-05-01T00:51:06;99502.38;;;13.69;97.45
7376;BME280;3728;42.266;24.944;2023-05-01T00:53:35;99507.16;;;13.47;98.46
7376;BME280;3728;42.266;24.944;2023-05-01T00:56:03;99509.06;;;13.38;99.70
7376;BME280;3728;42.266;24.944;2023-05-01T00:58:31;99509.56;;;13.31;100.00
7376;BME280;3728;42.266;24.944;2023-05-01T01:00:58;99515.94;;;13.22;100.00
7376;BME280;3728;42.266;24.944;2023-05-01T01:03:27;99514.09;;;13.22;100.00
7376;BME280;3728;42.266;24.944;2023-05-01T01:06:23;99516.44;;;13.15;100.00
7376;BME280;3728;42.266;24.944;2023-05-01T01:09:10;99523.75;;;13.01;100.00
7376;BME280;3728;42.266;24.944;2023-05-01T01:12:16;99525.13;;;12.98;100.00
7376;BME280;3728;42.266;24.944;2023-05-01T01:17:33;99533.97;;;12.94;100.00
7376;BME280;3728;42.266;24.944;2023-05-01T01:20:16;99534.59;;;12.91;100.00
7376;BME280;3728;42.266;24.944;2023-05-01T01:23:00;99526.25;;;12.97;100.00
7376;BME280;3728;42.266;24.944;2023-05-01T01:25:55;99535.31;;;13.17;100.00
7376;BME280;3728;42.266;24.944;2023-05-01T01:29:01;99532.81;;;13.21;100.00
7376;BME280;3728;42.266;24.944;2023-05-01T01:32:02;99544.41;;;13.28;98.93
7376;BME280;3728;42.266;24.944;2023-05-01T01:34:43;99533.44;;;13.18;98.81
7376;BME280;3728;42.266;24.944;2023-05-01T01:37:35;99528.81;;;13.15;98.21
7376;BME280;3728;42.266;24.944;2023-05-01T01:40:19;99517.38;;;13.11;99.20
7376;BME280;3728;42.266;24.944;2023-05-01T01:43:02;99523.91;;;12.96;100.00
7376;BME280;3728;42.266;24.944;2023-05-01T01:45:38;99521.88;;;13.01;100.00
7376;BME280;3728;42.266;24.944;2023-05-01T01:48:12;99519.22;;;13.19;99.01
7376;BME280;3728;42.266;24.944;2023-05-01T01:50:47;99513.69;;;13.03;98.78
7376;BME280;3728;42.266;24.944;2023-05-01T01:53:17;99510.81;;;12.87;100.00
7376;BME280;3728;42.266;24.944;2023-05-01T01:55:46;99512.03;;;12.81;100.00
7376;BME280;3728;42.266;24.944;2023-05-01T01:58:15;99518.88;;;12.74;100.00
7376;BME280;3728;42.266;24.944;2023-05-01T02:00:45;99517.00;;;12.83;100.00
7376;BME280;3728;42.266;24.944;2023-05-01T02:03:13;99512.31;;;12.97;100.00
7376;BME280;3728;42.266;24.944;2023-05-01T02:05:42;99519.88;;;12.98;100.00
7376;BME280;3728;42.266;24.944;2023-05-01T02:08:12;99515.22;;;13.04;100.00
7376;BME280;3728;42.266;24.944;2023-05-01T02:10:41;99519.38;;;13.05;100.00
7376;BME280;3728;42.266;24.944;2023-05-01T02:13:11;99519.25;;;13.10;100.00
7376;BME280;3728;42.266;24.944;2023-05-01T02:15:41;99520.91;;;13.15;100.00
7376;BME280;3728;42.266;24.944;2023-05-01T02:18:08;99521.88;;;13.10;99.63
7376;BME280;3728;42.266;24.944;2023-05-01T02:20:37;99510.41;;;13.15;99.22
7376;BME280;3728;42.266;24.944;2023-05-01T02:23:05;99507.31;;;13.13;98.89
7376;BME280;3728;42.266;24.944;2023-05-01T02:25:35;99511.06;;;13.12;98.82
7376;BME280;3728;42.266;24.944;2023-05-01T02:28:11;99506.97;;;13.23;98.56
7376;BME280;3728;42.266;24.944;2023-05-01T02:30:40;99503.63;;;13.14;98.82
7376;BME280;3728;42.266;24.944;2023-05-01T02:33:08;99510.22;;;13.20;98.62
7376;BME280;3728;42.266;24.944;2023-05-01T02:35:44;99519.16;;;13.27;98.00
7376;BME280;3728;42.266;24.944;2023-05-01T02:38:15;99518.28;;;13.23;98.27
7376;BME280;3728;42.266;24.944;2023-05-01T02:40:46;99517.81;;;13.21;98.82
7376;BME280;3728;42.266;24.944;2023-05-01T02:43:19;99524.28;;;13.24;98.81
7376;BME280;3728;42.266;24.944;2023-05-01T02:45:50;99526.91;;;13.24;98.57
7376;BME280;3728;42.266;24.944;2023-05-01T02:48:22;99523.03;;;13.30;99.04
7376;BME280;3728;42.266;24.944;2023-05-01T02:50:53;99527.34;;;13.34;98.52
7376;BME280;3728;42.266;24.944;2023-05-01T02:53:22;99533.81;;;13.37;98.15
7376;BME280;3728;42.266;24.944;2023-05-01T02:55:55;99530.59;;;13.31;98.10
7376;BME280;3728;42.266;24.944;2023-05-01T02:58:24;99534.34;;;13.30;98.49
7376;BME280;3728;42.266;24.944;2023-05-01T03:00:55;99536.00;;;13.64;97.60
7376;BME280;3728;42.266;24.944;2023-05-01T03:03:22;99532.34;;;13.56;94.54
7376;BME280;3728;42.266;24.944;2023-05-01T03:05:51;99544.69;;;13.35;94.78
7376;BME280;3728;42.266;24.944;2023-05-01T03:08:18;99545.69;;;13.14;95.99
7376;BME280;3728;42.266;24.944;2023-05-01T03:10:46;99539.84;;;12.99;96.47
7376;BME280;3728;42.266;24.944;2023-05-01T03:13:13;99542.94;;;12.93;97.41
7376;BME280;3728;42.266;24.944;2023-05-01T03:15:43;99552.34;;;13.02;95.84
7376;BME280;3728;42.266;24.944;2023-05-01T03:18:10;99553.09;;;13.03;94.83
7376;BME280;3728;42.266;24.944;2023-05-01T03:20:38;99559.19;;;12.86;96.03
7376;BME280;3728;42.266;24.944;2023-05-01T03:23:06;99564.19;;;12.71;98.16
7376;BME280;3728;42.266;24.944;2023-05-01T03:25:33;99564.94;;;12.63;98.33
7376;BME280;3728;42.266;24.944;2023-05-01T03:28:02;99563.41;;;12.70;97.91
7376;BME280;3728;42.266;24.944;2023-05-01T03:30:32;99574.25;;;12.43;98.29
7376;BME280;3728;42.266;24.944;2023-05-01T03:33:01;99581.03;;;12.44;98.51
7376;BME280;3728;42.266;24.944;2023-05-01T03:35:31;99582.44;;;12.33;99.69
7376;BME280;3728;42.266;24.944;2023-05-01T03:37:58;99582.28;;;12.21;100.00
7376;BME280;3728;42.266;24.944;2023-05-01T03:40:45;99579.94;;;12.11;100.00
7376;BME280;3728;42.266;24.944;2023-05-01T03:43:51;99576.88;;;12.00;100.00
7376;BME280;3728;42.266;24.944;2023-05-01T03:46:28;99583.81;;;12.05;100.00
7376;BME280;3728;42.266;24.944;2023-05-01T03:48:56;99585.50;;;12.18;99.33
7376;BME280;3728;42.266;24.944;2023-05-01T03:51:25;99587.53;;;12.21;99.71
7376;BME280;3728;42.266;24.944;2023-05-01T03:53:54;99586.78;;;12.29;98.76
7376;BME280;3728;42.266;24.944;2023-05-01T03:56:29;99592.78;;;12.38;99.23
7376;BME280;3728;42.266;24.944;2023-05-01T03:59:02;99589.25;;;12.34;99.88
7376;BME280;3728;42.266;24.944;2023-05-01T04:01:29;99591.25;;;12.37;100.00
7376;BME280;3728;42.266;24.944;2023-05-01T04:03:59;99604.06;;;12.64;100.00
7376;BME280;3728;42.266;24.944;2023-05-01T04:06:28;99595.84;;;12.74;98.19
7376;BME280;3728;42.266;24.944;2023-05-01T04:08:55;99605.25;;;12.92;97.42
7376;BME280;3728;42.266;24.944;2023-05-01T04:11:23;99607.56;;;12.94;97.01
7376;BME280;3728;42.266;24.944;2023-05-01T04:13:50;99604.97;;;12.85;99.27
7376;BME280;3728;42.266;24.944;2023-05-01T04:16:18;99619.81;;;12.90;100.00
7376;BME280;3728;42.266;24.944;2023-05-01T04:18:46;99614.53;;;12.90;100.00
7376;BME280;3728;42.266;24.944;2023-05-01T04:21:14;99608.66;;;12.84;100.00
7376;BME280;3728;42.266;24.944;2023-05-01T04:23:47;99616.41;;;13.07;100.00
7376;BME280;3728;42.266;24.944;2023-05-01T04:26:14;99606.19;;;13.43;100.00
7376;BME280;3728;42.266;24.944;2023-05-01T04:28:43;99624.78;;;13.76;97.98
7376;BME280;3728;42.266;24.944;2023-05-01T04:31:12;99621.81;;;13.56;96.26
7376;BME280;3728;42.266;24.944;2023-05-01T04:33:40;99623.25;;;13.37;98.89
7376;BME280;3728;42.266;24.944;2023-05-01T04:36:07;99627.81;;;13.57;98.56
7376;BME280;3728;42.266;24.944;2023-05-01T04:38:35;99632.03;;;13.87;96.00
7376;BME280;3728;42.266;24.944;2023-05-01T04:41:04;99639.00;;;13.83;95.75
7376;BME280;3728;42.266;24.944;2023-05-01T04:43:32;99637.03;;;13.80;96.30
7376;BME280;3728;42.266;24.944;2023-05-01T04:46:02;99640.38;;;13.89;95.79
7376;BME280;3728;42.266;24.944;2023-05-01T04:48:31;99638.44;;;13.78;96.37
7376;BME280;3728;42.266;24.944;2023-05-01T04:50:58;99643.09;;;13.72;97.04
7376;BME280;3728;42.266;24.944;2023-05-01T04:53:29;99649.25;;;14.05;94.74
7376;BME280;3728;42.266;24.944;2023-05-01T04:55:57;99648.09;;;13.94;95.63
7376;BME280;3728;42.266;24.944;2023-05-01T04:58:26;99643.16;;;14.13;96.01
7376;BME280;3728;42.266;24.944;2023-05-01T05:00:59;99646.97;;;14.24;94.10
7376;BME280;3728;42.266;24.944;2023-05-01T05:03:27;99647.34;;;14.44;93.84
7376;BME280;3728;42.266;24.944;2023-05-01T05:05:54;99650.56;;;14.20;96.14
7376;BME280;3728;42.266;24.944;2023-05-01T05:08:22;99651.50;;;14.45;94.94
7376;BME280;3728;42.266;24.944;2023-05-01T05:11:06;99651.06;;;14.96;92.19
7376;BME280;3728;42.266;24.944;2023-05-01T05:13:54;99648.66;;;14.70;90.98
7376;BME280;3728;42.266;24.944;2023-05-01T05:16:22;99657.88;;;14.64;92.00
7376;BME280;3728;42.266;24.944;2023-05-01T05:18:54;99657.66;;;14.49;94.09
7376;BME280;3728;42.266;24.944;2023-05-01T05:21:27;99663.19;;;14.35;96.86
7376;BME280;3728;42.266;24.944;2023-05-01T05:24:00;99671.84;;;14.97;92.43
7376;BME280;3728;42.266;24.944;2023-05-01T05:26:27;99670.03;;;14.57;94.60
7376;BME280;3728;42.266;24.944;2023-05-01T05:28:59;99674.97;;;14.58;94.86
7376;BME280;3728;42.266;24.944;2023-05-01T05:31:30;99676.19;;;14.81;95.22
7376;BME280;3728;42.266;24.944;2023-05-01T05:33:58;99676.94;;;14.82;94.64
7376;BME280;3728;42.266;24.944;2023-05-01T05:36:26;99679.06;;;15.21;90.44
7376;BME280;3728;42.266;24.944;2023-05-01T05:38:54;99684.16;;;15.38;88.96
7376;BME280;3728;42.266;24.944;2023-05-01T05:41:22;99676.19;;;15.47;88.19
7376;BME280;3728;42.266;24.944;2023-05-01T05:43:53;99685.88;;;15.22;89.70
7376;BME280;3728;42.266;24.944;2023-05-01T05:46:20;99679.91;;;15.13;91.38
7376;BME280;3728;42.266;24.944;2023-05-01T05:48:48;99684.81;;;15.35;89.94
7376;BME280;3728;42.266;24.944;2023-05-01T05:51:16;99684.16;;;15.38;88.80
7376;BME280;3728;42.266;24.944;2023-05-01T05:53:45;99685.97;;;15.46;88.90
7376;BME280;3728;42.266;24.944;2023-05-01T05:56:12;99691.13;;;15.55;88.07
7376;BME280;3728;42.266;24.944;2023-05-01T05:58:40;99704.69;;;15.65;87.88
7376;BME280;3728;42.266;24.944;2023-05-01T06:01:07;99698.88;;;15.72;87.91
7376;BME280;3728;42.266;24.944;2023-05-01T06:03:37;99712.19;;;16.00;87.02
7376;BME280;3728;42.266;24.944;2023-05-01T06:06:05;99714.97;;;16.15;85.89
7376;BME280;3728;42.266;24.944;2023-05-01T06:08:33;99720.56;;;16.26;86.40
7376;BME280;3728;42.266;24.944;2023-05-01T06:11:07;99710.75;;;16.38;85.98
7376;BME280;3728;42.266;24.944;2023-05-01T06:13:36;99722.47;;;16.77;82.66
7376;BME280;3728;42.266;24.944;2023-05-01T06:16:05;99730.38;;;16.89;81.86
7376;BME280;3728;42.266;24.944;2023-05-01T06:18:33;99726.50;;;16.87;81.54
7376;BME280;3728;42.266;24.944;2023-05-01T06:21:00;99726.84;;;16.85;81.84
7376;BME280;3728;42.266;24.944;2023-05-01T06:23:28;99721.63;;;17.01;80.66
7376;BME280;3728;42.266;24.944;2023-05-01T06:26:14;99728.25;;;17.23;80.22
7376;BME280;3728;42.266;24.944;2023-05-01T06:28:41;99724.94;;;17.26;79.99
7376;BME280;3728;42.266;24.944;2023-05-01T06:31:09;99726.66;;;17.34;79.21
7376;BME280;3728;42.266;24.944;2023-05-01T06:33:42;99729.78;;;17.51;76.80
7376;BME280;3728;42.266;24.944;2023-05-01T06:36:30;99729.13;;;17.54;77.18
7376;BME280;3728;42.266;24.944;2023-05-01T06:38:57;99737.66;;;17.63;76.76
7376;BME280;3728;42.266;24.944;2023-05-01T06:41:25;99735.34;;;17.93;74.60
7376;BME280;3728;42.266;24.944;2023-05-01T06:43:53;99743.22;;;17.74;76.18
7376;BME280;3728;42.266;24.944;2023-05-01T06:46:22;99741.84;;;18.11;74.94
7376;BME280;3728;42.266;24.944;2023-05-01T06:48:49;99743.47;;;18.00;75.23
7376;BME280;3728;42.266;24.944;2023-05-01T06:51:19;99738.06;;;18.12;74.48
7376;BME280;3728;42.266;24.944;2023-05-01T06:53:46;99750.41;;;18.20;73.06
7376;BME280;3728;42.266;24.944;2023-05-01T06:56:14;99748.00;;;18.66;72.82
7376;BME280;3728;42.266;24.944;2023-05-01T06:58:41;99752.34;;;18.74;71.92
7376;BME280;3728;42.266;24.944;2023-05-01T07:01:09;99750.84;;;18.57;71.34
7376;BME280;3728;42.266;24.944;2023-05-01T07:03:36;99755.84;;;18.97;69.23
7376;BME280;3728;42.266;24.944;2023-05-01T07:06:04;99749.44;;;18.98;71.09
7376;BME280;3728;42.266;24.944;2023-05-01T07:08:32;99751.00;;;19.41;68.92
7376;BME280;3728;42.266;24.944;2023-05-01T07:10:59;99758.84;;;19.15;70.17
7376;BME280;3728;42.266;24.944;2023-05-01T07:13:27;99758.75;;;19.30;69.04
7376;BME280;3728;42.266;24.944;2023-05-01T07:15:55;99761.34;;;19.46;69.03
7376;BME280;3728;42.266;24.944;2023-05-01T07:18:22;99761.59;;;19.37;68.66
7376;BME280;3728;42.266;24.944;2023-05-01T07:20:50;99767.16;;;19.32;70.01
7376;BME280;3728;42.266;24.944;2023-05-01T07:23:18;99767.69;;;19.60;68.80
7376;BME280;3728;42.266;24.944;2023-05-01T07:25:48;99764.50;;;19.51;70.71
7376;BME280;3728;42.266;24.944;2023-05-01T07:28:15;99762.31;;;19.57;69.52
7376;BME280;3728;42.266;24.944;2023-05-01T07:30:44;99763.34;;;19.94;65.75
7376;BME280;3728;42.266;24.944;2023-05-01T07:33:13;99769.31;;;20.14;63.88
7376;BME280;3728;42.266;24.944;2023-05-01T07:35:40;99778.13;;;20.40;61.15
7376;BME280;3728;42.266;24.944;2023-05-01T07:38:08;99772.59;;;20.53;60.75
7376;BME280;3728;42.266;24.944;2023-05-01T07:40:37;99772.31;;;21.17;56.26
7376;BME280;3728;42.266;24.944;2023-05-01T07:43:06;99783.25;;;20.82;58.29
7376;BME280;3728;42.266;24.944;2023-05-01T07:45:39;99781.94;;;20.99;55.33
7376;BME280;3728;42.266;24.944;2023-05-01T07:48:08;99782.75;;;21.03;56.24
7376;BME280;3728;42.266;24.944;2023-05-01T07:50:37;99782.66;;;21.26;54.02
7376;BME280;3728;42.266;24.944;2023-05-01T07:53:05;99774.44;;;21.08;56.07
7376;BME280;3728;42.266;24.944;2023-05-01T07:55:32;99781.13;;;21.25;56.76
7376;BME280;3728;42.266;24.944;2023-05-01T07:58:00;99783.22;;;21.42;54.90
7376;BME280;3728;42.266;24.944;2023-05-01T08:00:28;99783.75;;;21.58;53.52
7376;BME280;3728;42.266;24.944;2023-05-01T08:02:56;99784.00;;;21.83;54.87
7376;BME280;3728;42.266;24.944;2023-05-01T08:05:23;99782.63;;;21.99;53.55
7376;BME280;3728;42.266;24.944;2023-05-01T08:07:51;99784.47;;;21.92;53.72
7376;BME280;3728;42.266;24.944;2023-05-01T08:10:18;99786.63;;;22.23;52.91
7376;BME280;3728;42.266;24.944;2023-05-01T08:12:46;99789.53;;;22.58;52.70
7376;BME280;3728;42.266;24.944;2023-05-01T08:15:14;99799.13;;;22.63;51.62
7376;BME280;3728;42.266;24.944;2023-05-01T08:17:41;99794.25;;;22.82;50.69
7376;BME280;3728;42.266;24.944;2023-05-01T08:20:10;99800.88;;;23.17;49.95
7376;BME280;3728;42.266;24.944;2023-05-01T08:22:38;99803.16;;;23.11;49.91
7376;BME280;3728;42.266;24.944;2023-05-01T08:25:06;99799.81;;;23.35;46.92
7376;BME280;3728;42.266;24.944;2023-05-01T08:27:33;99801.75;;;23.42;46.36
7376;BME280;3728;42.266;24.944;2023-05-01T08:30:01;99799.06;;;23.38;47.45
7376;BME280;3728;42.266;24.944;2023-05-01T08:32:29;99806.03;;;23.96;45.13
7376;BME280;3728;42.266;24.944;2023-05-01T08:34:57;99802.94;;;23.72;45.48
7376;BME280;3728;42.266;24.944;2023-05-01T08:37:25;99799.88;;;23.63;45.71
7376;BME280;3728;42.266;24.944;2023-05-01T08:39:53;99798.38;;;23.91;44.97
7376;BME280;3728;42.266;24.944;2023-05-01T08:42:21;99797.59;;;23.65;45.20
7376;BME280;3728;42.266;24.944;2023-05-01T08:44:54;99795.28;;;23.53;45.70
7376;BME280;3728;42.266;24.944;2023-05-01T08:47:25;99793.38;;;23.54;44.43
7376;BME280;3728;42.266;24.944;2023-05-01T08:49:56;99803.72;;;23.80;44.65
7376;BME280;3728;42.266;24.944;2023-05-01T08:52:26;99797.25;;;23.74;41.90
7376;BME280;3728;42.266;24.944;2023-05-01T08:54:55;99795.28;;;23.53;42.97
7376;BME280;3728;42.266;24.944;2023-05-01T08:57:24;99791.88;;;23.67;43.50
7376;BME280;3728;42.266;24.944;2023-05-01T08:59:54;99792.66;;;23.71;42.61
7376;BME280;3728;42.266;24.944;2023-05-01T09:02:23;99782.34;;;23.80;42.19
7376;BME280;3728;42.266;24.944;2023-05-01T09:04:52;99780.44;;;24.12;43.96
7376;BME280;3728;42.266;24.944;2023-05-01T09:07:23;99788.78;;;24.53;42.16
7376;BME280;3728;42.266;24.944;2023-05-01T09:09:51;99778.13;;;24.32;40.64
7376;BME280;3728;42.266;24.944;2023-05-01T09:12:23;99784.59;;;24.52;41.08
7376;BME280;3728;42.266;24.944;2023-05-01T09:14:53;99788.00;;;24.70;42.15
7376;BME280;3728;42.266;24.944;2023-05-01T09:17:22;99790.66;;;24.67;41.38
7376;BME280;3728;42.266;24.944;2023-05-01T09:19:51;99784.63;;;24.34;42.69
7376;BME280;3728;42.266;24.944;2023-05-01T09:22:20;99794.91;;;24.50;41.49
7376;BME280;3728;42.266;24.944;2023-05-01T09:24:47;99792.63;;;24.45;41.04
7376;BME280;3728;42.266;24.944;2023-05-01T09:27:15;99801.44;;;24.56;41.37
7376;BME280;3728;42.266;24.944;2023-05-01T09:29:46;99796.81;;;24.67;41.42
7376;BME280;3728;42.266;24.944;2023-05-01T09:32:19;99797.47;;;24.99;41.16
7376;BME280;3728;42.266;24.944;2023-05-01T09:34:52;99793.63;;;25.07;40.34
7376;BME280;3728;42.266;24.944;2023-05-01T09:37:30;99788.69;;;24.95;40.81
7376;BME280;3728;42.266;24.944;2023-05-01T09:40:02;99801.69;;;24.97;41.11
7376;BME280;3728;42.266;24.944;2023-05-01T09:42:31;99798.44;;;25.41;40.63
7376;BME280;3728;42.266;24.944;2023-05-01T09:45:01;99797.34;;;25.28;40.43
7376;BME280;3728;42.266;24.944;2023-05-01T09:47:37;99789.25;;;25.35;39.98
7376;BME280;3728;42.266;24.944;2023-05-01T09:50:11;99785.16;;;25.20;39.92
7376;BME280;3728;42.266;24.944;2023-05-01T09:53:00;99787.69;;;25.44;38.71
7376;BME280;3728;42.266;24.944;2023-05-01T09:55:31;99786.38;;;25.01;41.01
7376;BME280;3728;42.266;24.944;2023-05-01T09:58:03;99785.50;;;25.18;39.67
7376;BME280;3728;42.266;24.944;2023-05-01T10:00:46;99795.59;;;24.93;41.67
7376;BME280;3728;42.266;24.944;2023-05-01T10:03:18;99789.22;;;25.42;41.60
7376;BME280;3728;42.266;24.944;2023-05-01T10:05:47;99784.81;;;25.76;39.77
7376;BME280;3728;42.266;24.944;2023-05-01T10:08:15;99786.38;;;25.73;39.34
7376;BME280;3728;42.266;24.944;2023-05-01T10:10:43;99777.38;;;25.36;40.92
7376;BME280;3728;42.266;24.944;2023-05-01T10:13:16;99788.84;;;25.47;39.14
7376;BME280;3728;42.266;24.944;2023-05-01T10:15:44;99791.09;;;25.52;41.05
7376;BME280;3728;42.266;24.944;2023-05-01T10:18:15;99788.69;;;25.68;39.54
7376;BME280;3728;42.266;24.944;2023-05-01T10:20:47;99791.84;;;26.07;38.26
7376;BME280;3728;42.266;24.944;2023-05-01T10:23:15;99801.31;;;26.26;39.01
7376;BME280;3728;42.266;24.944;2023-05-01T10:25:43;99796.84;;;26.05;38.64
7376;BME280;3728;42.266;24.944;2023-05-01T10:28:11;99794.53;;;26.07;39.56
7376;BME280;3728;42.266;24.944;2023-05-01T10:30:40;99800.66;;;26.08;39.27
7376;BME280;3728;42.266;24.944;2023-05-01T10:33:12;99804.88;;;26.09;38.74
7376;BME280;3728;42.266;24.944;2023-05-01T10:35:43;99802.44;;;26.28;39.17
7376;BME280;3728;42.266;24.944;2023-05-01T10:38:26;99806.72;;;26.60;39.47
7376;BME280;3728;42.266;24.944;2023-05-01T10:41:00;99809.44;;;26.93;38.49
7376;BME280;3728;42.266;24.944;2023-05-01T10:43:30;99817.47;;;27.27;37.25
7376;BME280;3728;42.266;24.944;2023-05-01T10:53:48;99818.38;;;26.83;40.09
7376;BME280;3728;42.266;24.944;2023-05-01T10:59:03;99825.88;;;26.62;39.49
7376;BME280;3728;42.266;24.944;2023-05-01T11:12:10;99832.59;;;26.43;40.03
7376;BME280;3728;42.266;24.944;2023-05-01T11:23:01;99832.44;;;25.61;37.36
7376;BME280;3728;42.266;24.944;2023-05-01T11:25:29;99829.91;;;25.95;37.19
7376;BME280;3728;42.266;24.944;2023-05-01T11:28:02;99824.50;;;26.02;35.87
7376;BME280;3728;42.266;24.944;2023-05-01T11:30:36;99827.22;;;25.95;37.54
7376;BME280;3728;42.266;24.944;2023-05-01T11:33:07;99816.56;;;25.88;36.79
7376;BME280;3728;42.266;24.944;2023-05-01T11:35:37;99824.97;;;25.90;37.63
7376;BME280;3728;42.266;24.944;2023-05-01T11:38:05;99818.41;;;25.95;37.90
7376;BME280;3728;42.266;24.944;2023-05-01T11:40:41;99813.63;;;26.20;36.77
7376;BME280;3728;42.266;24.944;2023-05-01T11:43:09;99815.06;;;26.69;36.82
7376;BME280;3728;42.266;24.944;2023-05-01T11:45:38;99817.00;;;27.02;34.80
7376;BME280;3728;42.266;24.944;2023-05-01T11:48:13;99807.41;;;27.31;33.53
7376;BME280;3728;42.266;24.944;2023-05-01T11:50:41;99808.06;;;27.69;34.29
7376;BME280;3728;42.266;24.944;2023-05-01T11:53:13;99813.53;;;27.89;33.86
7376;BME280;3728;42.266;24.944;2023-05-01T11:55:41;99805.16;;;28.10;33.12
7376;BME280;3728;42.266;24.944;2023-05-01T11:58:10;99801.59;;;28.13;32.42
7376;BME280;3728;42.266;24.944;2023-05-01T12:00:42;99807.69;;;28.40;33.96
7376;BME280;3728;42.266;24.944;2023-05-01T12:03:13;99805.59;;;28.71;34.01
7376;BME280;3728;42.266;24.944;2023-05-01T12:05:43;99807.03;;;28.95;33.56
7376;BME280;3728;42.266;24.944;2023-05-01T12:10:52;99807.38;;;27.65;36.07
7376;BME280;3728;42.266;24.944;2023-05-01T12:13:27;99807.72;;;27.40;37.17
7376;BME280;3728;42.266;24.944;2023-05-01T12:15:55;99801.94;;;26.74;38.55
7376;BME280;3728;42.266;24.944;2023-05-01T12:18:23;99802.25;;;26.46;39.00
7376;BME280;3728;42.266;24.944;2023-05-01T12:20:52;99806.75;;;26.19;39.95
7376;BME280;3728;42.266;24.944;2023-05-01T12:23:32;99802.72;;;25.93;40.51
7376;BME280;3728;42.266;24.944;2023-05-01T12:26:15;99796.22;;;25.91;41.81
7376;BME280;3728;42.266;24.944;2023-05-01T12:31:23;99794.69;;;26.75;39.79
7376;BME280;3728;42.266;24.944;2023-05-01T12:34:10;99789.38;;;26.68;38.94
7376;BME280;3728;42.266;24.944;2023-05-01T12:36:38;99796.88;;;26.46;40.12
7376;BME280;3728;42.266;24.944;2023-05-01T12:39:10;99795.59;;;26.20;38.85
7376;BME280;3728;42.266;24.944;2023-05-01T12:44:29;99783.56;;;26.35;39.52
7376;BME280;3728;42.266;24.944;2023-05-01T12:47:01;99789.75;;;26.29;39.65
7376;BME280;3728;42.266;24.944;2023-05-01T12:49:34;99790.41;;;25.96;39.76
7376;BME280;3728;42.266;24.944;2023-05-01T12:52:05;99789.66;;;25.95;38.44
7376;BME280;3728;42.266;24.944;2023-05-01T12:54:37;99781.81;;;25.67;39.87
7376;BME280;3728;42.266;24.944;2023-05-01T12:57:13;99784.09;;;25.68;38.91
7376;BME280;3728;42.266;24.944;2023-05-01T12:59:43;99780.75;;;25.57;39.40
7376;BME280;3728;42.266;24.944;2023-05-01T13:02:13;99782.66;;;25.53;39.46
7376;BME280;3728;42.266;24.944;2023-05-01T13:04:45;99772.06;;;25.25;39.86
7376;BME280;3728;42.266;24.944;2023-05-01T13:07:18;99774.72;;;25.36;40.50
7376;BME280;3728;42.266;24.944;2023-05-01T13:09:52;99768.38;;;25.70;39.40
7376;BME280;3728;42.266;24.944;2023-05-01T13:12:21;99766.28;;;26.36;39.07
7376;BME280;3728;42.266;24.944;2023-05-01T13:14:50;99774.56;;;26.86;36.58
7376;BME280;3728;42.266;24.944;2023-05-01T13:17:22;99774.53;;;26.90;36.00
7376;BME280;3728;42.266;24.944;2023-05-01T13:19:58;99766.03;;;26.58;36.29
7376;BME280;3728;42.266;24.944;2023-05-01T13:25:13;99767.09;;;27.28;33.58
7376;BME280;3728;42.266;24.944;2023-05-01T13:27:52;99768.03;;;27.71;33.69
7376;BME280;3728;42.266;24.944;2023-05-01T13:30:30;99774.53;;;27.97;33.05
7376;BME280;3728;42.266;24.944;2023-05-01T13:32:59;99768.63;;;28.28;31.72
7376;BME280;3728;42.266;24.944;2023-05-01T13:35:27;99771.19;;;28.55;31.05
7376;BME280;3728;42.266;24.944;2023-05-01T13:37:55;99762.50;;;28.48;30.33
7376;BME280;3728;42.266;24.944;2023-05-01T13:40:24;99771.34;;;28.48;31.95
7376;BME280;3728;42.266;24.944;2023-05-01T13:42:53;99766.56;;;28.56;32.52
7376;BME280;3728;42.266;24.944;2023-05-01T13:45:21;99765.69;;;28.62;32.54
7376;BME280;3728;42.266;24.944;2023-05-01T13:47:49;99772.88;;;28.49;32.30
7376;BME280;3728;42.266;24.944;2023-05-01T13:50:20;99768.81;;;28.61;31.61
7376;BME280;3728;42.266;24.944;2023-05-01T13:52:48;99766.47;;;28.63;30.90
7376;BME280;3728;42.266;24.944;2023-05-01T13:55:16;99765.34;;;28.60;30.61
7376;BME280;3728;42.266;24.944;2023-05-01T13:57:44;99766.56;;;28.36;31.19
7376;BME280;3728;42.266;24.944;2023-05-01T14:00:16;99766.34;;;28.27;31.03
7376;BME280;3728;42.266;24.944;2023-05-01T14:02:46;99770.44;;;28.35;32.29
7376;BME280;3728;42.266;24.944;2023-05-01T14:05:15;99769.38;;;28.29;30.71
7376;BME280;3728;42.266;24.944;2023-05-01T14:07:46;99762.09;;;28.06;31.74
7376;BME280;3728;42.266;24.944;2023-05-01T14:10:20;99762.53;;;28.24;32.47
7376;BME280;3728;42.266;24.944;2023-05-01T14:12:49;99765.84;;;28.75;31.92